sensor_id;sensor_type;location;lat;lon;timestamp;temperature;humidity
76102;SHT30;64830;46.910;6.354;2023-07-29T00:01:16;19.80;70.44
76102;SHT30;64830;46.910;6.354;2023-07-29T00:03:41;19.78;70.43
76102;SHT30;64830;46.910;6.354;2023-07-29T00:06:07;19.83;70.46
76102;SHT30;64830;46.910;6.354;2023-07-29T00:08:32;19.81;70.95
76102;SHT30;64830;46.910;6.354;2023-07-29T00:10:57;19.76;70.93
76102;SHT30;64830;46.910;6.354;2023-07-29T00:13:23;19.80;71.08
76102;SHT30;64830;46.910;6.354;2023-07-29T00:15:48;19.80;71.08
76102;SHT30;64830;46.910;6.354;2023-07-29T00:18:14;19.77;70.83
76102;SHT30;64830;46.910;6.354;2023-07-29T00:20:39;19.80;71.00
76102;SHT30;64830;46.910;6.354;2023-07-29T00:23:05;19.78;71.13
76102;SHT30;64830;46.910;6.354;2023-07-29T00:25:30;19.77;70.97
76102;SHT30;64830;46.910;6.354;2023-07-29T00:27:56;19.83;70.79
76102;SHT30;64830;46.910;6.354;2023-07-29T00:30:22;19.83;70.66
76102;SHT30;64830;46.910;6.354;2023-07-29T00:32:47;19.80;70.77
76102;SHT30;64830;46.910;6.354;2023-07-29T00:35:13;19.81;70.66
76102;SHT30;64830;46.910;6.354;2023-07-29T00:37:38;19.78;70.88
76102;SHT30;64830;46.910;6.354;2023-07-29T00:40:14;19.73;70.87
76102;SHT30;64830;46.910;6.354;2023-07-29T00:42:40;19.76;70.81
76102;SHT30;64830;46.910;6.354;2023-07-29T00:45:08;19.78;70.99
76102;SHT30;64830;46.910;6.354;2023-07-29T00:47:33;19.74;71.04
76102;SHT30;64830;46.910;6.354;2023-07-29T00:49:59;19.74;71.09
76102;SHT30;64830;46.910;6.354;2023-07-29T00:52:24;19.80;70.93
76102;SHT30;64830;46.910;6.354;2023-07-29T00:54:50;19.78;70.93
76102;SHT30;64830;46.910;6.354;2023-07-29T00:57:16;19.78;70.91
76102;SHT30;64830;46.910;6.354;2023-07-29T00:59:43;19.76;71.00
76102;SHT30;64830;46.910;6.354;2023-07-29T01:02:08;19.77;71.02
76102;SHT30;64830;46.910;6.354;2023-07-29T01:04:37;19.69;71.21
76102;SHT30;64830;46.910;6.354;2023-07-29T01:07:28;19.69;71.30
76102;SHT30;64830;46.910;6.354;2023-07-29T01:18:22;19.66;71.59
76102;SHT30;64830;46.910;6.354;2023-07-29T01:20:48;19.67;71.61
76102;SHT30;64830;46.910;6.354;2023-07-29T01:23:24;19.67;71.58
76102;SHT30;64830;46.910;6.354;2023-07-29T01:25:58;19.66;71.64
76102;SHT30;64830;46.910;6.354;2023-07-29T01:28:27;19.69;71.89
76102;SHT30;64830;46.910;6.354;2023-07-29T01:31:01;19.70;71.80
76102;SHT30;64830;46.910;6.354;2023-07-29T01:33:35;19.69;71.91
76102;SHT30;64830;46.910;6.354;2023-07-29T01:36:10;19.67;71.85
76102;SHT30;64830;46.910;6.354;2023-07-29T01:38:38;19.65;72.11
76102;SHT30;64830;46.910;6.354;2023-07-29T01:41:09;19.63;72.42
76102;SHT30;64830;46.910;6.354;2023-07-29T01:43:34;19.60;72.23
76102;SHT30;64830;46.910;6.354;2023-07-29T01:46:07;19.62;72.36
76102;SHT30;64830;46.910;6.354;2023-07-29T01:48:32;19.62;72.27
76102;SHT30;64830;46.910;6.354;2023-07-29T01:50:57;19.60;72.44
76102;SHT30;64830;46.910;6.354;2023-07-29T01:53:23;19.62;72.58
76102;SHT30;64830;46.910;6.354;2023-07-29T01:55:48;19.63;72.58
76102;SHT30;64830;46.910;6.354;2023-07-29T01:58:14;19.67;72.80
76102;SHT30;64830;46.910;6.354;2023-07-29T02:00:39;19.63;72.80
76102;SHT30;64830;46.910;6.354;2023-07-29T02:03:05;19.65;72.80
76102;SHT30;64830;46.910;6.354;2023-07-29T02:05:31;19.63;72.95
76102;SHT30;64830;46.910;6.354;2023-07-29T02:07:56;19.60;72.90
76102;SHT30;64830;46.910;6.354;2023-07-29T02:10:21;19.60;73.17
76102;SHT30;64830;46.910;6.354;2023-07-29T02:12:47;19.59;73.52
76102;SHT30;64830;46.910;6.354;2023-07-29T02:15:12;19.56;73.40
76102;SHT30;64830;46.910;6.354;2023-07-29T02:17:41;19.55;73.39
76102;SHT30;64830;46.910;6.354;2023-07-29T02:20:07;19.53;73.60
76102;SHT30;64830;46.910;6.354;2023-07-29T02:22:33;19.56;73.59
76102;SHT30;64830;46.910;6.354;2023-07-29T02:24:59;19.55;73.42
76102;SHT30;64830;46.910;6.354;2023-07-29T02:27:24;19.56;73.37
76102;SHT30;64830;46.910;6.354;2023-07-29T02:29:52;19.59;73.57
76102;SHT30;64830;46.910;6.354;2023-07-29T02:32:18;19.59;73.73
76102;SHT30;64830;46.910;6.354;2023-07-29T02:34:44;19.59;73.50
76102;SHT30;64830;46.910;6.354;2023-07-29T02:37:09;19.60;73.68
76102;SHT30;64830;46.910;6.354;2023-07-29T02:39:35;19.63;73.69
76102;SHT30;64830;46.910;6.354;2023-07-29T02:42:00;19.66;73.73
76102;SHT30;64830;46.910;6.354;2023-07-29T02:44:25;19.66;73.72
76102;SHT30;64830;46.910;6.354;2023-07-29T02:46:51;19.70;73.86
76102;SHT30;64830;46.910;6.354;2023-07-29T02:49:17;19.67;74.13
76102;SHT30;64830;46.910;6.354;2023-07-29T02:51:43;19.65;74.02
76102;SHT30;64830;46.910;6.354;2023-07-29T02:54:08;19.63;74.11
76102;SHT30;64830;46.910;6.354;2023-07-29T02:56:33;19.65;74.09
76102;SHT30;64830;46.910;6.354;2023-07-29T02:58:59;19.63;74.25
76102;SHT30;64830;46.910;6.354;2023-07-29T03:01:25;19.62;74.16
76102;SHT30;64830;46.910;6.354;2023-07-29T03:03:51;19.57;74.19
76102;SHT30;64830;46.910;6.354;2023-07-29T03:06:16;19.57;74.32
76102;SHT30;64830;46.910;6.354;2023-07-29T03:08:41;19.53;74.71
76102;SHT30;64830;46.910;6.354;2023-07-29T03:11:09;19.50;74.58
76102;SHT30;64830;46.910;6.354;2023-07-29T03:13:35;19.50;74.64
76102;SHT30;64830;46.910;6.354;2023-07-29T03:16:11;19.50;74.77
76102;SHT30;64830;46.910;6.354;2023-07-29T03:18:37;19.50;74.55
76102;SHT30;64830;46.910;6.354;2023-07-29T03:21:02;19.52;74.60
76102;SHT30;64830;46.910;6.354;2023-07-29T03:23:29;19.52;74.70
76102;SHT30;64830;46.910;6.354;2023-07-29T03:25:58;19.53;74.72
76102;SHT30;64830;46.910;6.354;2023-07-29T03:28:25;19.49;74.54
76102;SHT30;64830;46.910;6.354;2023-07-29T03:30:53;19.50;74.62
76102;SHT30;64830;46.910;6.354;2023-07-29T03:33:18;19.49;74.71
76102;SHT30;64830;46.910;6.354;2023-07-29T03:35:43;19.48;74.60
76102;SHT30;64830;46.910;6.354;2023-07-29T03:38:10;19.48;74.55
76102;SHT30;64830;46.910;6.354;2023-07-29T03:40:37;19.48;74.36
76102;SHT30;64830;46.910;6.354;2023-07-29T03:43:02;19.48;74.31
76102;SHT30;64830;46.910;6.354;2023-07-29T03:45:27;19.48;74.40
76102;SHT30;64830;46.910;6.354;2023-07-29T03:47:53;19.49;74.49
76102;SHT30;64830;46.910;6.354;2023-07-29T03:50:18;19.48;74.49
76102;SHT30;64830;46.910;6.354;2023-07-29T03:52:46;19.45;74.66
76102;SHT30;64830;46.910;6.354;2023-07-29T03:55:12;19.45;74.59
76102;SHT30;64830;46.910;6.354;2023-07-29T03:57:37;19.45;74.82
76102;SHT30;64830;46.910;6.354;2023-07-29T04:00:03;19.39;74.81
76102;SHT30;64830;46.910;6.354;2023-07-29T04:02:28;19.38;74.80
76102;SHT30;64830;46.910;6.354;2023-07-29T04:04:54;19.36;74.94
76102;SHT30;64830;46.910;6.354;2023-07-29T04:07:19;19.33;75.02
76102;SHT30;64830;46.910;6.354;2023-07-29T04:09:45;19.28;75.03
76102;SHT30;64830;46.910;6.354;2023-07-29T04:12:10;19.26;75.23
76102;SHT30;64830;46.910;6.354;2023-07-29T04:14:36;19.21;75.20
76102;SHT30;64830;46.910;6.354;2023-07-29T04:17:01;19.19;75.25
76102;SHT30;64830;46.910;6.354;2023-07-29T04:19:27;19.11;75.33
76102;SHT30;64830;46.910;6.354;2023-07-29T04:21:52;19.11;75.42
76102;SHT30;64830;46.910;6.354;2023-07-29T04:24:18;19.08;75.40
76102;SHT30;64830;46.910;6.354;2023-07-29T04:26:47;19.10;75.59
76102;SHT30;64830;46.910;6.354;2023-07-29T04:29:13;19.05;75.74
76102;SHT30;64830;46.910;6.354;2023-07-29T04:31:38;19.04;75.77
76102;SHT30;64830;46.910;6.354;2023-07-29T04:34:05;19.04;75.75
76102;SHT30;64830;46.910;6.354;2023-07-29T04:36:30;19.04;75.73
76102;SHT30;64830;46.910;6.354;2023-07-29T04:38:56;19.04;75.67
76102;SHT30;64830;46.910;6.354;2023-07-29T04:41:21;19.05;75.61
76102;SHT30;64830;46.910;6.354;2023-07-29T04:43:46;19.04;75.74
76102;SHT30;64830;46.910;6.354;2023-07-29T04:46:12;19.05;75.85
76102;SHT30;64830;46.910;6.354;2023-07-29T04:48:37;19.03;75.79
76102;SHT30;64830;46.910;6.354;2023-07-29T04:51:03;19.05;75.62
76102;SHT30;64830;46.910;6.354;2023-07-29T04:53:28;19.04;75.61
76102;SHT30;64830;46.910;6.354;2023-07-29T04:55:54;19.08;75.52
76102;SHT30;64830;46.910;6.354;2023-07-29T04:58:19;19.05;75.64
76102;SHT30;64830;46.910;6.354;2023-07-29T05:00:46;19.05;75.70
76102;SHT30;64830;46.910;6.354;2023-07-29T05:03:15;19.07;75.76
76102;SHT30;64830;46.910;6.354;2023-07-29T05:05:40;19.07;75.53
76102;SHT30;64830;46.910;6.354;2023-07-29T05:08:05;19.10;75.47
76102;SHT30;64830;46.910;6.354;2023-07-29T05:10:31;19.12;75.37
76102;SHT30;64830;46.910;6.354;2023-07-29T05:12:56;19.15;75.39
76102;SHT30;64830;46.910;6.354;2023-07-29T05:15:22;19.15;75.38
76102;SHT30;64830;46.910;6.354;2023-07-29T05:17:47;19.15;75.30
76102;SHT30;64830;46.910;6.354;2023-07-29T05:20:12;19.18;75.23
76102;SHT30;64830;46.910;6.354;2023-07-29T05:22:38;19.18;75.14
76102;SHT30;64830;46.910;6.354;2023-07-29T05:25:03;19.22;75.31
76102;SHT30;64830;46.910;6.354;2023-07-29T05:27:29;19.25;75.16
76102;SHT30;64830;46.910;6.354;2023-07-29T05:29:54;19.29;75.07
76102;SHT30;64830;46.910;6.354;2023-07-29T05:32:20;19.33;74.90
76102;SHT30;64830;46.910;6.354;2023-07-29T05:34:45;19.36;74.77
76102;SHT30;64830;46.910;6.354;2023-07-29T05:37:10;19.38;74.59
76102;SHT30;64830;46.910;6.354;2023-07-29T05:39:36;19.42;74.51
76102;SHT30;64830;46.910;6.354;2023-07-29T05:42:02;19.45;74.22
76102;SHT30;64830;46.910;6.354;2023-07-29T05:44:28;19.48;74.18
76102;SHT30;64830;46.910;6.354;2023-07-29T05:46:53;19.56;74.09
76102;SHT30;64830;46.910;6.354;2023-07-29T05:49:19;19.63;73.66
76102;SHT30;64830;46.910;6.354;2023-07-29T05:51:44;19.73;73.61
76102;SHT30;64830;46.910;6.354;2023-07-29T05:54:09;19.84;73.50
76102;SHT30;64830;46.910;6.354;2023-07-29T05:56:35;19.91;73.32
76102;SHT30;64830;46.910;6.354;2023-07-29T05:59:00;20.05;73.23
76102;SHT30;64830;46.910;6.354;2023-07-29T06:01:26;20.25;73.08
76102;SHT30;64830;46.910;6.354;2023-07-29T06:03:51;20.46;72.74
76102;SHT30;64830;46.910;6.354;2023-07-29T06:06:17;20.66;71.85
76102;SHT30;64830;46.910;6.354;2023-07-29T06:08:42;20.79;71.47
76102;SHT30;64830;46.910;6.354;2023-07-29T06:11:08;20.87;70.67
76102;SHT30;64830;46.910;6.354;2023-07-29T06:13:33;21.01;70.58
76102;SHT30;64830;46.910;6.354;2023-07-29T06:15:58;21.12;69.52
76102;SHT30;64830;46.910;6.354;2023-07-29T06:18:24;21.25;69.39
76102;SHT30;64830;46.910;6.354;2023-07-29T06:20:50;21.26;69.26
76102;SHT30;64830;46.910;6.354;2023-07-29T06:23:16;21.24;68.99
76102;SHT30;64830;46.910;6.354;2023-07-29T06:25:41;21.24;68.78
76102;SHT30;64830;46.910;6.354;2023-07-29T06:28:08;21.17;68.27
76102;SHT30;64830;46.910;6.354;2023-07-29T06:30:34;21.14;68.79
76102;SHT30;64830;46.910;6.354;2023-07-29T06:32:59;21.15;69.11
76102;SHT30;64830;46.910;6.354;2023-07-29T06:35:30;21.18;69.40
76102;SHT30;64830;46.910;6.354;2023-07-29T06:37:56;21.24;69.21
76102;SHT30;64830;46.910;6.354;2023-07-29T06:40:21;21.36;69.86
76102;SHT30;64830;46.910;6.354;2023-07-29T06:42:47;21.52;69.78
76102;SHT30;64830;46.910;6.354;2023-07-29T06:45:12;21.67;69.36
76102;SHT30;64830;46.910;6.354;2023-07-29T06:47:38;21.77;69.40
76102;SHT30;64830;46.910;6.354;2023-07-29T06:50:03;21.77;69.01
76102;SHT30;64830;46.910;6.354;2023-07-29T06:52:29;21.66;69.20
76102;SHT30;64830;46.910;6.354;2023-07-29T06:54:54;21.54;69.68
76102;SHT30;64830;46.910;6.354;2023-07-29T06:57:20;21.50;69.59
76102;SHT30;64830;46.910;6.354;2023-07-29T06:59:45;21.50;69.56
76102;SHT30;64830;46.910;6.354;2023-07-29T07:02:10;21.64;69.93
76102;SHT30;64830;46.910;6.354;2023-07-29T07:04:36;21.87;69.52
76102;SHT30;64830;46.910;6.354;2023-07-29T07:07:01;22.02;68.98
76102;SHT30;64830;46.910;6.354;2023-07-29T07:09:27;22.05;68.53
76102;SHT30;64830;46.910;6.354;2023-07-29T07:11:52;22.14;68.69
76102;SHT30;64830;46.910;6.354;2023-07-29T07:14:17;22.31;67.91
76102;SHT30;64830;46.910;6.354;2023-07-29T07:16:43;22.38;67.54
76102;SHT30;64830;46.910;6.354;2023-07-29T07:19:09;22.39;67.14
76102;SHT30;64830;46.910;6.354;2023-07-29T07:21:34;22.36;67.43
76102;SHT30;64830;46.910;6.354;2023-07-29T07:23:59;22.31;66.78
76102;SHT30;64830;46.910;6.354;2023-07-29T07:26:25;22.26;67.46
76102;SHT30;64830;46.910;6.354;2023-07-29T07:28:51;22.29;67.41
76102;SHT30;64830;46.910;6.354;2023-07-29T07:31:17;22.39;67.45
76102;SHT30;64830;46.910;6.354;2023-07-29T07:33:42;22.39;66.90
76102;SHT30;64830;46.910;6.354;2023-07-29T07:36:08;22.42;66.59
76102;SHT30;64830;46.910;6.354;2023-07-29T07:38:36;22.43;66.60
76102;SHT30;64830;46.910;6.354;2023-07-29T07:41:02;22.36;67.15
76102;SHT30;64830;46.910;6.354;2023-07-29T07:43:27;22.26;67.27
76102;SHT30;64830;46.910;6.354;2023-07-29T07:45:59;22.21;67.59
76102;SHT30;64830;46.910;6.354;2023-07-29T07:48:26;22.18;67.15
76102;SHT30;64830;46.910;6.354;2023-07-29T07:50:51;22.19;67.70
76102;SHT30;64830;46.910;6.354;2023-07-29T07:53:16;22.12;67.21
76102;SHT30;64830;46.910;6.354;2023-07-29T07:55:42;22.12;67.50
76102;SHT30;64830;46.910;6.354;2023-07-29T07:58:07;22.14;67.61
76102;SHT30;64830;46.910;6.354;2023-07-29T08:00:33;22.14;67.31
76102;SHT30;64830;46.910;6.354;2023-07-29T08:02:58;22.12;67.08
76102;SHT30;64830;46.910;6.354;2023-07-29T08:05:23;22.21;67.40
76102;SHT30;64830;46.910;6.354;2023-07-29T08:07:49;22.25;65.38
76102;SHT30;64830;46.910;6.354;2023-07-29T08:10:14;22.19;66.07
76102;SHT30;64830;46.910;6.354;2023-07-29T08:12:40;22.18;65.94
76102;SHT30;64830;46.910;6.354;2023-07-29T08:15:05;22.15;66.02
76102;SHT30;64830;46.910;6.354;2023-07-29T08:17:31;22.12;65.81
76102;SHT30;64830;46.910;6.354;2023-07-29T08:19:56;22.15;66.00
76102;SHT30;64830;46.910;6.354;2023-07-29T08:22:21;22.22;66.35
76102;SHT30;64830;46.910;6.354;2023-07-29T08:24:47;22.28;65.74
76102;SHT30;64830;46.910;6.354;2023-07-29T08:27:12;22.32;65.62
76102;SHT30;64830;46.910;6.354;2023-07-29T08:29:38;22.33;65.16
76102;SHT30;64830;46.910;6.354;2023-07-29T08:32:04;22.38;65.39
76102;SHT30;64830;46.910;6.354;2023-07-29T08:34:29;22.50;65.06
76102;SHT30;64830;46.910;6.354;2023-07-29T08:36:55;22.60;65.67
76102;SHT30;64830;46.910;6.354;2023-07-29T08:39:20;22.77;65.48
76102;SHT30;64830;46.910;6.354;2023-07-29T08:41:56;22.87;64.30
76102;SHT30;64830;46.910;6.354;2023-07-29T08:44:26;22.93;64.11
76102;SHT30;64830;46.910;6.354;2023-07-29T08:46:52;22.95;63.76
76102;SHT30;64830;46.910;6.354;2023-07-29T08:49:19;22.97;63.60
76102;SHT30;64830;46.910;6.354;2023-07-29T08:51:47;23.03;63.58
76102;SHT30;64830;46.910;6.354;2023-07-29T08:54:13;23.14;62.69
76102;SHT30;64830;46.910;6.354;2023-07-29T08:56:41;23.08;61.41
76102;SHT30;64830;46.910;6.354;2023-07-29T08:59:07;22.95;62.08
76102;SHT30;64830;46.910;6.354;2023-07-29T09:01:33;22.95;62.85
76102;SHT30;64830;46.910;6.354;2023-07-29T09:03:59;22.98;63.59
76102;SHT30;64830;46.910;6.354;2023-07-29T09:06:26;22.97;63.43
76102;SHT30;64830;46.910;6.354;2023-07-29T09:08:54;22.97;63.16
76102;SHT30;64830;46.910;6.354;2023-07-29T09:11:21;23.04;63.02
76102;SHT30;64830;46.910;6.354;2023-07-29T09:13:47;23.07;62.89
76102;SHT30;64830;46.910;6.354;2023-07-29T09:16:13;23.08;62.55
76102;SHT30;64830;46.910;6.354;2023-07-29T09:18:38;23.07;62.35
76102;SHT30;64830;46.910;6.354;2023-07-29T09:21:04;23.04;62.42
76102;SHT30;64830;46.910;6.354;2023-07-29T09:23:38;22.98;61.57
76102;SHT30;64830;46.910;6.354;2023-07-29T09:26:05;23.00;62.15
76102;SHT30;64830;46.910;6.354;2023-07-29T09:28:35;23.08;62.33
76102;SHT30;64830;46.910;6.354;2023-07-29T09:31:01;23.19;61.77
76102;SHT30;64830;46.910;6.354;2023-07-29T09:33:28;23.28;61.03
76102;SHT30;64830;46.910;6.354;2023-07-29T09:35:53;23.37;60.64
76102;SHT30;64830;46.910;6.354;2023-07-29T09:38:26;23.42;60.77
76102;SHT30;64830;46.910;6.354;2023-07-29T09:40:55;23.50;61.14
76102;SHT30;64830;46.910;6.354;2023-07-29T09:43:25;23.59;60.77
76102;SHT30;64830;46.910;6.354;2023-07-29T09:45:51;23.70;60.02
76102;SHT30;64830;46.910;6.354;2023-07-29T09:48:22;23.80;59.49
76102;SHT30;64830;46.910;6.354;2023-07-29T09:50:47;23.84;59.55
76102;SHT30;64830;46.910;6.354;2023-07-29T09:53:14;24.05;58.57
76102;SHT30;64830;46.910;6.354;2023-07-29T09:55:39;24.21;58.89
76102;SHT30;64830;46.910;6.354;2023-07-29T09:58:05;24.39;58.84
76102;SHT30;64830;46.910;6.354;2023-07-29T10:00:33;24.52;58.46
76102;SHT30;64830;46.910;6.354;2023-07-29T10:02:59;24.63;57.90
76102;SHT30;64830;46.910;6.354;2023-07-29T10:05:28;24.72;57.26
76102;SHT30;64830;46.910;6.354;2023-07-29T10:07:55;24.86;57.47
76102;SHT30;64830;46.910;6.354;2023-07-29T10:10:21;24.81;56.65
76102;SHT30;64830;46.910;6.354;2023-07-29T10:12:46;24.83;55.72
76102;SHT30;64830;46.910;6.354;2023-07-29T10:15:12;24.77;56.84
76102;SHT30;64830;46.910;6.354;2023-07-29T10:17:39;24.70;56.93
76102;SHT30;64830;46.910;6.354;2023-07-29T10:20:06;24.57;55.34
76102;SHT30;64830;46.910;6.354;2023-07-29T10:22:40;24.40;55.64
76102;SHT30;64830;46.910;6.354;2023-07-29T10:25:17;24.24;55.85
76102;SHT30;64830;46.910;6.354;2023-07-29T10:30:14;24.18;56.76
76102;SHT30;64830;46.910;6.354;2023-07-29T10:32:42;24.38;58.06
76102;SHT30;64830;46.910;6.354;2023-07-29T10:35:12;24.56;58.08
76102;SHT30;64830;46.910;6.354;2023-07-29T10:37:38;24.70;56.11
76102;SHT30;64830;46.910;6.354;2023-07-29T10:40:07;24.74;55.48
76102;SHT30;64830;46.910;6.354;2023-07-29T10:42:32;24.72;55.87
76102;SHT30;64830;46.910;6.354;2023-07-29T10:44:58;24.62;55.16
76102;SHT30;64830;46.910;6.354;2023-07-29T10:47:28;24.42;54.86
76102;SHT30;64830;46.910;6.354;2023-07-29T10:49:58;24.25;56.04
76102;SHT30;64830;46.910;6.354;2023-07-29T10:55:02;24.15;58.05
76102;SHT30;64830;46.910;6.354;2023-07-29T10:57:38;24.11;57.72
76102;SHT30;64830;46.910;6.354;2023-07-29T11:00:06;24.02;57.18
76102;SHT30;64830;46.910;6.354;2023-07-29T11:02:35;24.05;57.81
76102;SHT30;64830;46.910;6.354;2023-07-29T11:05:05;24.07;57.80
76102;SHT30;64830;46.910;6.354;2023-07-29T11:07:46;24.05;57.67
76102;SHT30;64830;46.910;6.354;2023-07-29T11:10:13;23.97;57.13
76102;SHT30;64830;46.910;6.354;2023-07-29T11:12:49;23.84;57.45
76102;SHT30;64830;46.910;6.354;2023-07-29T11:15:22;23.71;57.99
76102;SHT30;64830;46.910;6.354;2023-07-29T11:18:01;23.53;58.21
76102;SHT30;64830;46.910;6.354;2023-07-29T11:20:29;23.43;58.40
76102;SHT30;64830;46.910;6.354;2023-07-29T11:22:56;23.42;59.33
76102;SHT30;64830;46.910;6.354;2023-07-29T11:25:23;23.38;61.66
76102;SHT30;64830;46.910;6.354;2023-07-29T11:27:51;23.28;61.95
76102;SHT30;64830;46.910;6.354;2023-07-29T11:30:17;23.12;62.50
76102;SHT30;64830;46.910;6.354;2023-07-29T11:32:44;23.03;62.80
76102;SHT30;64830;46.910;6.354;2023-07-29T11:35:12;22.98;61.39
76102;SHT30;64830;46.910;6.354;2023-07-29T11:37:40;22.90;60.03
76102;SHT30;64830;46.910;6.354;2023-07-29T11:40:06;22.84;60.14
76102;SHT30;64830;46.910;6.354;2023-07-29T11:42:33;22.74;60.65
76102;SHT30;64830;46.910;6.354;2023-07-29T11:44:59;22.70;62.49
76102;SHT30;64830;46.910;6.354;2023-07-29T11:47:25;22.52;62.96
76102;SHT30;64830;46.910;6.354;2023-07-29T11:49:51;22.33;64.49
76102;SHT30;64830;46.910;6.354;2023-07-29T11:52:18;22.14;66.03
76102;SHT30;64830;46.910;6.354;2023-07-29T11:54:46;22.01;66.08
76102;SHT30;64830;46.910;6.354;2023-07-29T11:57:12;21.81;66.91
76102;SHT30;64830;46.910;6.354;2023-07-29T11:59:39;21.69;68.38
76102;SHT30;64830;46.910;6.354;2023-07-29T12:02:07;21.59;68.45
76102;SHT30;64830;46.910;6.354;2023-07-29T12:04:34;21.54;70.05
76102;SHT30;64830;46.910;6.354;2023-07-29T12:07:00;21.47;69.75
76102;SHT30;64830;46.910;6.354;2023-07-29T12:09:26;21.45;71.08
76102;SHT30;64830;46.910;6.354;2023-07-29T12:11:52;21.43;70.55
76102;SHT30;64830;46.910;6.354;2023-07-29T12:14:18;21.47;71.74
76102;SHT30;64830;46.910;6.354;2023-07-29T12:16:44;21.42;70.86
76102;SHT30;64830;46.910;6.354;2023-07-29T12:19:13;21.25;71.35
76102;SHT30;64830;46.910;6.354;2023-07-29T12:21:41;21.22;71.53
76102;SHT30;64830;46.910;6.354;2023-07-29T12:24:06;21.24;72.54
76102;SHT30;64830;46.910;6.354;2023-07-29T12:26:32;21.32;72.23
76102;SHT30;64830;46.910;6.354;2023-07-29T12:28:58;21.42;71.87
76102;SHT30;64830;46.910;6.354;2023-07-29T12:31:32;21.52;72.32
76102;SHT30;64830;46.910;6.354;2023-07-29T12:33:58;21.60;72.86
76102;SHT30;64830;46.910;6.354;2023-07-29T12:36:40;21.62;71.76
76102;SHT30;64830;46.910;6.354;2023-07-29T12:39:05;21.63;71.76
76102;SHT30;64830;46.910;6.354;2023-07-29T12:41:31;21.57;70.93
76102;SHT30;64830;46.910;6.354;2023-07-29T12:43:56;21.47;71.40
76102;SHT30;64830;46.910;6.354;2023-07-29T12:46:21;21.47;71.38
76102;SHT30;64830;46.910;6.354;2023-07-29T12:48:47;21.50;72.15
76102;SHT30;64830;46.910;6.354;2023-07-29T12:51:12;21.47;71.32
76102;SHT30;64830;46.910;6.354;2023-07-29T12:53:37;21.38;71.67
76102;SHT30;64830;46.910;6.354;2023-07-29T12:56:03;21.35;72.17
76102;SHT30;64830;46.910;6.354;2023-07-29T12:58:28;21.35;71.87
76102;SHT30;64830;46.910;6.354;2023-07-29T13:00:54;21.35;72.29
76102;SHT30;64830;46.910;6.354;2023-07-29T13:03:19;21.35;71.86
76102;SHT30;64830;46.910;6.354;2023-07-29T13:05:44;21.38;72.42
76102;SHT30;64830;46.910;6.354;2023-07-29T13:08:10;21.38;72.03
76102;SHT30;64830;46.910;6.354;2023-07-29T13:10:35;21.38;72.40
76102;SHT30;64830;46.910;6.354;2023-07-29T13:13:01;21.39;72.68
76102;SHT30;64830;46.910;6.354;2023-07-29T13:15:26;21.36;72.20
76102;SHT30;64830;46.910;6.354;2023-07-29T13:17:52;21.38;73.59
76102;SHT30;64830;46.910;6.354;2023-07-29T13:20:17;21.39;72.39
76102;SHT30;64830;46.910;6.354;2023-07-29T13:22:43;21.43;73.23
76102;SHT30;64830;46.910;6.354;2023-07-29T13:25:08;21.47;72.39
76102;SHT30;64830;46.910;6.354;2023-07-29T13:27:33;21.46;72.02
76102;SHT30;64830;46.910;6.354;2023-07-29T13:29:59;21.42;72.08
76102;SHT30;64830;46.910;6.354;2023-07-29T13:32:24;21.41;73.33
76102;SHT30;64830;46.910;6.354;2023-07-29T13:34:50;21.39;72.59
76102;SHT30;64830;46.910;6.354;2023-07-29T13:37:15;21.43;73.27
76102;SHT30;64830;46.910;6.354;2023-07-29T13:39:40;21.45;73.17
76102;SHT30;64830;46.910;6.354;2023-07-29T13:42:06;21.47;72.66
76102;SHT30;64830;46.910;6.354;2023-07-29T13:44:32;21.45;73.36
76102;SHT30;64830;46.910;6.354;2023-07-29T13:46:57;21.45;72.98
76102;SHT30;64830;46.910;6.354;2023-07-29T13:49:23;21.49;72.48
76102;SHT30;64830;46.910;6.354;2023-07-29T13:51:48;21.47;73.57
76102;SHT30;64830;46.910;6.354;2023-07-29T13:54:14;21.49;73.12
76102;SHT30;64830;46.910;6.354;2023-07-29T13:56:39;21.46;72.53
76102;SHT30;64830;46.910;6.354;2023-07-29T13:59:05;21.43;72.95
76102;SHT30;64830;46.910;6.354;2023-07-29T14:01:30;21.38;72.82
76102;SHT30;64830;46.910;6.354;2023-07-29T14:03:55;21.34;73.46
76102;SHT30;64830;46.910;6.354;2023-07-29T14:06:21;21.19;71.49
76102;SHT30;64830;46.910;6.354;2023-07-29T14:08:46;21.09;71.98
76102;SHT30;64830;46.910;6.354;2023-07-29T14:11:12;21.05;72.88
76102;SHT30;64830;46.910;6.354;2023-07-29T14:13:37;21.07;73.11
76102;SHT30;64830;46.910;6.354;2023-07-29T14:16:03;21.08;72.44
76102;SHT30;64830;46.910;6.354;2023-07-29T14:18:29;21.07;73.39
76102;SHT30;64830;46.910;6.354;2023-07-29T14:20:55;21.05;71.76
76102;SHT30;64830;46.910;6.354;2023-07-29T14:23:21;21.02;71.64
76102;SHT30;64830;46.910;6.354;2023-07-29T14:25:46;21.01;72.79
76102;SHT30;64830;46.910;6.354;2023-07-29T14:28:13;21.00;71.82
76102;SHT30;64830;46.910;6.354;2023-07-29T14:30:39;21.01;72.53
76102;SHT30;64830;46.910;6.354;2023-07-29T14:33:06;20.97;72.89
76102;SHT30;64830;46.910;6.354;2023-07-29T14:35:32;20.92;72.16
76102;SHT30;64830;46.910;6.354;2023-07-29T14:37:58;20.90;72.42
76102;SHT30;64830;46.910;6.354;2023-07-29T14:40:23;20.84;72.92
76102;SHT30;64830;46.910;6.354;2023-07-29T14:42:48;20.77;73.07
76102;SHT30;64830;46.910;6.354;2023-07-29T14:45:14;20.73;73.34
76102;SHT30;64830;46.910;6.354;2023-07-29T14:47:39;20.69;72.91
76102;SHT30;64830;46.910;6.354;2023-07-29T14:50:05;20.63;73.55
76102;SHT30;64830;46.910;6.354;2023-07-29T14:52:31;20.66;73.58
76102;SHT30;64830;46.910;6.354;2023-07-29T14:54:56;20.64;73.69
76102;SHT30;64830;46.910;6.354;2023-07-29T14:57:21;20.63;73.80
76102;SHT30;64830;46.910;6.354;2023-07-29T14:59:47;20.60;74.08
76102;SHT30;64830;46.910;6.354;2023-07-29T15:02:12;20.56;73.97
76102;SHT30;64830;46.910;6.354;2023-07-29T15:04:38;20.53;73.64
76102;SHT30;64830;46.910;6.354;2023-07-29T15:07:03;20.50;74.37
76102;SHT30;64830;46.910;6.354;2023-07-29T15:09:29;20.50;74.57
76102;SHT30;64830;46.910;6.354;2023-07-29T15:11:54;20.46;74.54
76102;SHT30;64830;46.910;6.354;2023-07-29T15:14:19;20.43;74.53
76102;SHT30;64830;46.910;6.354;2023-07-29T15:16:45;20.36;74.10
76102;SHT30;64830;46.910;6.354;2023-07-29T15:19:10;20.35;74.27
76102;SHT30;64830;46.910;6.354;2023-07-29T15:21:36;20.32;74.73
76102;SHT30;64830;46.910;6.354;2023-07-29T15:24:01;20.26;73.88
76102;SHT30;64830;46.910;6.354;2023-07-29T15:26:26;20.22;74.80
76102;SHT30;64830;46.910;6.354;2023-07-29T15:28:52;20.14;74.17
76102;SHT30;64830;46.910;6.354;2023-07-29T15:31:17;20.12;74.08
76102;SHT30;64830;46.910;6.354;2023-07-29T15:33:43;20.07;74.98
76102;SHT30;64830;46.910;6.354;2023-07-29T15:36:08;20.01;75.58
76102;SHT30;64830;46.910;6.354;2023-07-29T15:38:33;20.01;74.78